Time;durP1;ratioP1;P1;durP2;ratioP2;P2;SDS_P1;SDS_P2;PMS_P1;PMS_P2;Temp;Humidity;BMP_temperature;BMP_pressure;BME280_temperature;BME280_humidity;BME280_pressure;Samples;Min_cycle;Max_cycle;Signal;HPM_P1;HPM_P2
2022/01/10 00:02:05;;;;;;;0.00;0.00;;;4.50;92.00;;;;;;4175812;28;20415;-61
2022/01/10 00:04:29;;;;;;;0.00;0.00;;;4.50;92.00;;;;;;4178243;28;20419;-61
2022/01/10 00:06:51;;;;;;;0.00;0.00;;;4.50;91.90;;;;;;4178605;28;20053;-60
2022/01/10 00:09:14;;;;;;;0.00;0.00;;;4.50;92.00;;;;;;4178552;28;20456;-61
2022/01/10 00:11:37;;;;;;;0.00;0.00;;;4.50;91.90;;;;;;4152655;28;20054;-61
2022/01/10 00:13:59;;;;;;;0.00;0.00;;;4.40;92.00;;;;;;4177036;28;20197;-60
2022/01/10 00:16:22;;;;;;;0.00;0.00;;;4.40;92.20;;;;;;4178064;28;20059;-61
2022/01/10 00:18:44;;;;;;;0.00;0.00;;;4.40;92.30;;;;;;4164676;28;20446;-62
2022/01/10 00:21:07;;;;;;;0.00;0.00;;;4.50;92.10;;;;;;4178091;28;20044;-63
2022/01/10 00:23:30;;;;;;;0.00;0.00;;;4.30;92.20;;;;;;4178336;28;20186;-61
2022/01/10 00:25:52;;;;;;;0.00;0.00;;;4.40;92.30;;;;;;4178483;28;20049;-61
2022/01/10 00:28:14;;;;;;;0.00;0.00;;;4.40;92.10;;;;;;4191874;28;20500;-61
2022/01/10 00:30:37;;;;;;;0.00;0.00;;;4.40;92.20;;;;;;4178551;28;20069;-61
2022/01/10 00:33:00;;;;;;;0.00;0.00;;;4.50;92.20;;;;;;4164414;28;20056;-60
2022/01/10 00:35:22;;;;;;;0.00;0.00;;;4.50;92.10;;;;;;4178274;28;20071;-61
2022/01/10 00:37:46;;;;;;;0.00;0.00;;;4.60;92.10;;;;;;4178335;28;20557;-60
2022/01/10 00:40:10;;;;;;;0.00;0.00;;;4.60;92.00;;;;;;4164665;28;20754;-61
2022/01/10 00:42:32;;;;;;;0.00;0.00;;;4.60;91.90;;;;;;4177363;28;20461;-61
2022/01/10 00:44:57;;;;;;;0.00;0.00;;;4.70;91.90;;;;;;4178341;28;20132;-61
2022/01/10 00:47:19;;;;;;;0.00;0.00;;;4.60;91.90;;;;;;4178285;28;20140;-61
2022/01/10 00:49:43;;;;;;;0.00;0.00;;;4.60;92.10;;;;;;4164350;28;20147;-60
2022/01/10 00:52:06;;;;;;;0.00;0.00;;;4.60;92.00;;;;;;4164143;28;20502;-62
2022/01/10 00:54:28;;;;;;;0.00;0.00;;;4.60;92.00;;;;;;4177557;28;20090;-60
2022/01/10 00:56:51;;;;;;;0.00;0.00;;;4.70;92.00;;;;;;4177973;28;20056;-62
2022/01/10 00:59:13;;;;;;;0.00;0.00;;;4.70;92.00;;;;;;4178017;28;20136;-61
2022/01/10 01:01:35;;;;;;;0.00;0.00;;;4.70;91.90;;;;;;4174297;28;20083;-62
2022/01/10 01:03:58;;;;;;;0.00;0.00;;;4.80;91.80;;;;;;4161305;28;20240;-61
2022/01/10 01:06:21;;;;;;;0.00;0.00;;;4.80;91.70;;;;;;4161252;28;20049;-61
2022/01/10 01:08:45;;;;;;;0.00;0.00;;;4.80;91.70;;;;;;4161449;28;20143;-62
2022/01/10 01:13:53;;;;;;;0.00;0.00;;;4.80;91.70;;;;;;4161423;28;20042;-61
2022/01/10 01:24:37;;;;;;;0.00;0.00;;;4.70;91.70;;;;;;4149393;28;20444;-62
2022/01/10 01:27:00;;;;;;;0.00;0.00;;;4.70;91.60;;;;;;4161313;28;20049;-61
2022/01/10 01:29:30;;;;;;;0.00;0.00;;;4.80;91.60;;;;;;4162665;28;20049;-61
2022/01/10 01:32:03;;;;;;;0.00;0.00;;;4.80;91.60;;;;;;4162702;28;20057;-61
2022/01/10 01:34:43;;;;;;;0.00;0.00;;;4.90;91.60;;;;;;4165224;28;20042;-61
2022/01/10 01:37:09;;;;;;;0.00;0.00;;;4.90;91.60;;;;;;4165427;28;20545;-60
2022/01/10 01:39:45;;;;;;;0.00;0.00;;;4.90;91.60;;;;;;4165408;28;20084;-61
2022/01/10 01:44:49;;;;;;;0.00;0.00;;;4.90;91.60;;;;;;4165068;28;20057;-60
2022/01/10 01:47:29;;;;;;;0.00;0.00;;;4.90;91.60;;;;;;4165339;28;20049;-60
2022/01/10 01:50:10;;;;;;;0.00;0.00;;;4.90;91.50;;;;;;4165197;28;20049;-61
2022/01/10 01:52:45;;;;;;;0.00;0.00;;;4.90;91.60;;;;;;4163728;28;20048;-60
2022/01/10 01:55:08;;;;;;;0.00;0.00;;;5.00;91.60;;;;;;4164019;28;20579;-61
2022/01/10 01:57:38;;;;;;;0.00;0.00;;;5.00;91.60;;;;;;4165261;28;20053;-60
2022/01/10 02:00:03;;;;;;;0.00;0.00;;;5.10;91.50;;;;;;4149289;28;20609;-61
2022/01/10 02:02:27;;;;;;;0.00;0.00;;;5.10;91.40;;;;;;4163406;28;20089;-61
2022/01/10 02:04:59;;;;;;;0.00;0.00;;;5.10;91.40;;;;;;4163960;28;20140;-61
2022/01/10 02:07:43;;;;;;;0.00;0.00;;;5.10;91.40;;;;;;4164917;28;20058;-61
2022/01/10 02:10:11;;;;;;;0.00;0.00;;;5.10;91.40;;;;;;4150179;28;20092;-61
2022/01/10 02:12:44;;;;;;;0.00;0.00;;;5.10;91.40;;;;;;4164412;28;20056;-61
2022/01/10 02:15:32;;;;;;;0.00;0.00;;;5.20;91.60;;;;;;4154964;28;20050;-61
2022/01/10 02:18:00;;;;;;;0.00;0.00;;;5.30;91.20;;;;;;4162294;28;20052;-61
2022/01/10 02:20:24;;;;;;;0.00;0.00;;;5.20;91.20;;;;;;4163304;28;20466;-61
2022/01/10 02:22:47;;;;;;;0.00;0.00;;;5.30;91.20;;;;;;4149918;28;20088;-61
2022/01/10 02:25:35;;;;;;;0.00;0.00;;;5.30;91.00;;;;;;4163800;28;20041;-61
2022/01/10 02:27:59;;;;;;;0.00;0.00;;;5.30;91.10;;;;;;4163559;28;20495;-62
2022/01/10 02:30:22;;;;;;;0.00;0.00;;;5.30;91.10;;;;;;4163159;28;20047;-61
2022/01/10 02:32:46;;;;;;;0.00;0.00;;;5.30;91.40;;;;;;4172371;28;20055;-61
2022/01/10 02:35:51;;;;;;;0.00;0.00;;;5.30;91.10;;;;;;4133586;28;20516;-61
2022/01/10 02:38:14;;;;;;;0.00;0.00;;;5.30;91.20;;;;;;4115812;28;20564;-60
2022/01/10 02:40:37;;;;;;;0.00;0.00;;;5.20;91.10;;;;;;4102590;28;20053;-60
2022/01/10 02:43:05;;;;;;;0.00;0.00;;;5.20;91.20;;;;;;4115657;28;20051;-61
2022/01/10 02:45:28;;;;;;;0.00;0.00;;;5.20;91.20;;;;;;4113696;28;20058;-59
2022/01/10 02:47:50;;;;;;;0.00;0.00;;;5.10;91.20;;;;;;4113366;28;20069;-61
2022/01/10 02:50:15;;;;;;;0.00;0.00;;;5.10;91.50;;;;;;4115782;28;20090;-60
2022/01/10 02:52:38;;;;;;;0.00;0.00;;;5.20;91.20;;;;;;4102482;28;20054;-60
2022/01/10 02:55:01;;;;;;;0.00;0.00;;;5.20;91.10;;;;;;4116032;28;20405;-60
2022/01/10 02:57:25;;;;;;;0.00;0.00;;;5.00;90.90;;;;;;4116071;28;20536;-61
2022/01/10 02:59:47;;;;;;;0.00;0.00;;;4.90;91.20;;;;;;4115683;28;20294;-60
2022/01/10 03:02:11;;;;;;;0.00;0.00;;;4.90;91.30;;;;;;4126910;28;20046;-61
2022/01/10 03:04:35;;;;;;;0.00;0.00;;;4.90;91.30;;;;;;4104875;28;20050;-61
2022/01/10 03:06:58;;;;;;;0.00;0.00;;;4.90;91.40;;;;;;4122155;28;20404;-60
2022/01/10 03:09:22;;;;;;;0.00;0.00;;;4.90;91.40;;;;;;4118127;28;20046;-61
2022/01/10 03:11:44;;;;;;;0.00;0.00;;;4.90;91.40;;;;;;4130874;28;20049;-60
2022/01/10 03:14:07;;;;;;;0.00;0.00;;;5.00;91.40;;;;;;4142362;28;20080;-61
2022/01/10 03:16:30;;;;;;;0.00;0.00;;;5.00;91.30;;;;;;4145193;28;20459;-60
2022/01/10 03:18:52;;;;;;;0.00;0.00;;;5.00;91.20;;;;;;4148906;28;20045;-61
2022/01/10 03:21:19;;;;;;;0.00;0.00;;;5.00;91.30;;;;;;4175560;28;20051;-60
2022/01/10 03:23:41;;;;;;;0.00;0.00;;;5.00;91.30;;;;;;4149144;28;20061;-61
2022/01/10 03:26:04;;;;;;;0.00;0.00;;;4.90;91.20;;;;;;4148815;28;20049;-60
2022/01/10 03:28:26;;;;;;;0.00;0.00;;;4.90;91.30;;;;;;4164563;28;20048;-60
2022/01/10 03:30:49;;;;;;;0.00;0.00;;;4.90;91.30;;;;;;4159591;28;20050;-60
2022/01/10 03:33:14;;;;;;;0.00;0.00;;;4.80;91.30;;;;;;4157259;28;20092;-61
2022/01/10 03:35:37;;;;;;;0.00;0.00;;;4.80;91.40;;;;;;4178959;28;20144;-61
2022/01/10 03:38:04;;;;;;;0.00;0.00;;;4.80;91.30;;;;;;4151096;28;20128;-60
2022/01/10 03:40:28;;;;;;;0.00;0.00;;;4.80;91.30;;;;;;4177854;28;20063;-60
2022/01/10 03:42:55;;;;;;;0.00;0.00;;;4.80;91.30;;;;;;4165108;28;20056;-60
2022/01/10 03:45:17;;;;;;;0.00;0.00;;;4.80;91.30;;;;;;4165048;28;20451;-61
2022/01/10 03:47:40;;;;;;;0.00;0.00;;;4.80;91.30;;;;;;4178741;28;20063;-60
2022/01/10 03:50:04;;;;;;;0.00;0.00;;;4.80;91.40;;;;;;4164846;28;20076;-60
2022/01/10 03:52:29;;;;;;;0.00;0.00;;;4.80;91.30;;;;;;4178112;28;20053;-60
2022/01/10 03:54:52;;;;;;;0.00;0.00;;;4.80;91.30;;;;;;4192274;28;20036;-61
2022/01/10 03:57:14;;;;;;;0.00;0.00;;;4.80;91.30;;;;;;4164800;28;20049;-60
2022/01/10 03:59:37;;;;;;;0.00;0.00;;;4.80;91.40;;;;;;4164825;28;20053;-58
2022/01/10 04:01:59;;;;;;;0.00;0.00;;;4.80;91.30;;;;;;4177363;28;20046;-61
2022/01/10 04:04:22;;;;;;;0.00;0.00;;;4.70;91.20;;;;;;4164136;28;20088;-61
2022/01/10 04:06:45;;;;;;;0.00;0.00;;;4.70;91.40;;;;;;4164819;28;20431;-61
2022/01/10 04:09:08;;;;;;;0.00;0.00;;;4.80;91.40;;;;;;4178584;28;20562;-61
2022/01/10 04:11:30;;;;;;;0.00;0.00;;;4.80;91.40;;;;;;4178122;28;20084;-61
2022/01/10 04:13:53;;;;;;;0.00;0.00;;;4.90;91.30;;;;;;4178247;28;20132;-61
2022/01/10 04:16:16;;;;;;;0.00;0.00;;;4.80;91.40;;;;;;4191793;28;20087;-62
2022/01/10 04:18:39;;;;;;;0.00;0.00;;;4.80;91.50;;;;;;4178419;28;20133;-61
2022/01/10 04:21:01;;;;;;;0.00;0.00;;;4.90;91.40;;;;;;4178208;28;20135;-62
2022/01/10 04:23:23;;;;;;;0.00;0.00;;;4.90;91.30;;;;;;4178271;28;20037;-61
2022/01/10 04:25:46;;;;;;;0.00;0.00;;;4.80;91.30;;;;;;4192079;28;20139;-61
2022/01/10 04:28:10;;;;;;;0.00;0.00;;;4.80;91.50;;;;;;4164292;28;20045;-61
2022/01/10 04:30:39;;;;;;;0.00;0.00;;;4.80;91.50;;;;;;4163821;28;20053;-61
2022/01/10 04:33:03;;;;;;;0.00;0.00;;;4.80;91.40;;;;;;4134370;28;20137;-61
2022/01/10 04:35:26;;;;;;;0.00;0.00;;;4.80;91.40;;;;;;4148027;28;20042;-62
2022/01/10 04:37:49;;;;;;;0.00;0.00;;;4.70;91.30;;;;;;4161591;28;20042;-61
2022/01/10 04:40:12;;;;;;;0.00;0.00;;;4.70;91.30;;;;;;4161215;28;20231;-65
2022/01/10 04:42:36;;;;;;;0.00;0.00;;;4.70;91.40;;;;;;4147648;28;20053;-60
2022/01/10 04:44:59;;;;;;;0.00;0.00;;;4.70;91.40;;;;;;4161452;28;20045;-59
2022/01/10 04:47:22;;;;;;;0.00;0.00;;;4.80;91.40;;;;;;4161594;28;20120;-60
2022/01/10 04:52:22;;;;;;;0.00;0.00;;;4.70;91.30;;;;;;4160843;28;20103;-61
2022/01/10 04:54:45;;;;;;;0.00;0.00;;;4.70;91.30;;;;;;4161526;28;20490;-61
2022/01/10 04:57:07;;;;;;;0.00;0.00;;;4.70;91.70;;;;;;4147613;28;20050;-60
2022/01/10 04:59:30;;;;;;;0.00;0.00;;;4.60;91.30;;;;;;4147645;28;20037;-60
2022/01/10 05:01:52;;;;;;;0.00;0.00;;;4.60;91.60;;;;;;4147347;28;20081;-60
2022/01/10 05:04:15;;;;;;;0.00;0.00;;;4.60;91.50;;;;;;4161086;28;20114;-60
2022/01/10 05:06:37;;;;;;;0.00;0.00;;;4.60;91.40;;;;;;4161370;28;20045;-61
2022/01/10 05:09:00;;;;;;;0.00;0.00;;;4.60;91.40;;;;;;4151085;28;20104;-59
2022/01/10 05:11:36;;;;;;;0.00;0.00;;;4.60;91.50;;;;;;4164628;28;20442;-59
2022/01/10 05:13:59;;;;;;;0.00;0.00;;;4.70;91.40;;;;;;4164712;28;20589;-60
2022/01/10 05:16:22;;;;;;;0.00;0.00;;;4.80;91.30;;;;;;4164307;28;20060;-60
2022/01/10 05:18:44;;;;;;;0.00;0.00;;;4.90;91.10;;;;;;4164838;28;20108;-59
2022/01/10 05:21:06;;;;;;;0.00;0.00;;;4.80;91.20;;;;;;4150554;28;20064;-61
2022/01/10 05:23:29;;;;;;;0.00;0.00;;;4.80;91.20;;;;;;4164510;28;20079;-57
2022/01/10 05:25:51;;;;;;;0.00;0.00;;;4.70;91.20;;;;;;4165095;28;20045;-60
2022/01/10 05:28:19;;;;;;;0.00;0.00;;;4.60;91.30;;;;;;4150815;28;20050;-60
2022/01/10 05:30:45;;;;;;;0.00;0.00;;;4.70;91.50;;;;;;4151063;28;20458;-59
2022/01/10 05:33:10;;;;;;;0.00;0.00;;;4.60;91.30;;;;;;4164631;28;20045;-61
2022/01/10 05:35:39;;;;;;;0.00;0.00;;;4.40;91.50;;;;;;4150981;28;20432;-59
2022/01/10 05:38:02;;;;;;;0.00;0.00;;;4.40;91.70;;;;;;4151396;28;20045;-60
2022/01/10 05:40:27;;;;;;;0.00;0.00;;;4.40;91.60;;;;;;4164306;28;20079;-60
2022/01/10 05:42:49;;;;;;;0.00;0.00;;;4.30;91.70;;;;;;4150938;28;20084;-60
2022/01/10 05:45:12;;;;;;;0.00;0.00;;;4.20;91.90;;;;;;4150930;28;20884;-60
2022/01/10 05:47:40;;;;;;;0.00;0.00;;;4.10;92.00;;;;;;4151121;28;20056;-59
2022/01/10 05:50:04;;;;;;;0.00;0.00;;;4.20;92.10;;;;;;4164537;28;20091;-60
2022/01/10 05:52:32;;;;;;;0.00;0.00;;;4.10;92.00;;;;;;4150601;28;20066;-60
2022/01/10 05:54:56;;;;;;;0.00;0.00;;;4.20;92.20;;;;;;4144661;28;20042;-59
2022/01/10 05:57:19;;;;;;;0.00;0.00;;;4.30;92.00;;;;;;4143555;28;20093;-60
2022/01/10 05:59:46;;;;;;;0.00;0.00;;;4.20;92.10;;;;;;4137243;28;20053;-59
2022/01/10 06:02:09;;;;;;;0.00;0.00;;;4.30;92.10;;;;;;4150451;28;20053;-59
2022/01/10 06:04:32;;;;;;;0.00;0.00;;;4.30;92.10;;;;;;4164073;28;20053;-58
2022/01/10 06:07:05;;;;;;;0.00;0.00;;;4.40;92.10;;;;;;4150840;28;20423;-57
2022/01/10 06:09:28;;;;;;;0.00;0.00;;;4.40;92.00;;;;;;4164414;28;20046;-58
2022/01/10 06:11:51;;;;;;;0.00;0.00;;;4.50;91.80;;;;;;4164012;28;20164;-59
2022/01/10 06:14:13;;;;;;;0.00;0.00;;;4.50;91.60;;;;;;4150466;28;20085;-59
2022/01/10 06:16:35;;;;;;;0.00;0.00;;;4.60;91.60;;;;;;4150569;28;20038;-59
2022/01/10 06:19:00;;;;;;;0.00;0.00;;;4.70;91.60;;;;;;4150294;28;20048;-63
2022/01/10 06:21:25;;;;;;;0.00;0.00;;;4.80;91.60;;;;;;4150233;28;20081;-59
2022/01/10 06:23:48;;;;;;;0.00;0.00;;;4.80;91.50;;;;;;4150495;28;20050;-59
2022/01/10 06:26:12;;;;;;;0.00;0.00;;;4.90;91.40;;;;;;4149998;28;20041;-59
2022/01/10 06:28:34;;;;;;;0.00;0.00;;;4.90;91.30;;;;;;4150416;28;20129;-57
2022/01/10 06:31:00;;;;;;;0.00;0.00;;;4.90;91.30;;;;;;4150006;28;20074;-59
2022/01/10 06:33:29;;;;;;;0.00;0.00;;;4.90;91.30;;;;;;4150113;28;20053;-60
2022/01/10 06:35:51;;;;;;;0.00;0.00;;;5.00;91.30;;;;;;4136563;28;20054;-60
2022/01/10 06:38:15;;;;;;;0.00;0.00;;;5.00;91.20;;;;;;4147938;28;20133;-61
2022/01/10 06:40:38;;;;;;;0.00;0.00;;;5.00;91.10;;;;;;4164195;28;20037;-61
2022/01/10 06:43:01;;;;;;;0.00;0.00;;;5.00;91.30;;;;;;4163861;28;20053;-61
2022/01/10 06:45:24;;;;;;;0.00;0.00;;;4.80;91.30;;;;;;4150141;28;20046;-61
2022/01/10 06:47:47;;;;;;;0.00;0.00;;;4.70;91.60;;;;;;4149824;28;20407;-60
2022/01/10 06:50:10;;;;;;;0.00;0.00;;;4.80;91.50;;;;;;4163777;28;20072;-61
2022/01/10 06:52:38;;;;;;;0.00;0.00;;;4.90;91.30;;;;;;4149176;28;20046;-61
2022/01/10 06:55:00;;;;;;;0.00;0.00;;;4.90;91.20;;;;;;4150020;28;20053;-62
2022/01/10 06:57:23;;;;;;;0.00;0.00;;;4.90;91.10;;;;;;4163047;28;20542;-63
2022/01/10 06:59:46;;;;;;;0.00;0.00;;;4.90;91.20;;;;;;4163442;28;20132;-59
2022/01/10 07:02:09;;;;;;;0.00;0.00;;;4.80;91.20;;;;;;4156923;28;20073;-59
2022/01/10 07:04:32;;;;;;;0.00;0.00;;;4.70;91.30;;;;;;4163184;28;20154;-59
2022/01/10 07:06:58;;;;;;;0.00;0.00;;;4.70;91.40;;;;;;4163384;28;20052;-59
2022/01/10 07:09:24;;;;;;;0.00;0.00;;;4.70;91.30;;;;;;4177198;28;20079;-60
2022/01/10 07:11:54;;;;;;;0.00;0.00;;;4.70;91.30;;;;;;4149303;28;20137;-61
2022/01/10 07:14:17;;;;;;;0.00;0.00;;;4.70;91.40;;;;;;4149034;28;20054;-61
2022/01/10 07:16:44;;;;;;;0.00;0.00;;;4.90;91.20;;;;;;4163391;28;20474;-61
2022/01/10 07:19:07;;;;;;;0.00;0.00;;;5.00;91.10;;;;;;4163214;28;20049;-61
2022/01/10 07:21:34;;;;;;;0.00;0.00;;;5.10;90.70;;;;;;4162954;28;20048;-61
2022/01/10 07:23:57;;;;;;;0.00;0.00;;;5.10;90.70;;;;;;4163150;28;20079;-60
2022/01/10 07:26:19;;;;;;;0.00;0.00;;;5.20;90.70;;;;;;4162893;28;20093;-61
2022/01/10 07:28:47;;;;;;;0.00;0.00;;;5.10;90.70;;;;;;4177007;28;20046;-61
2022/01/10 07:31:09;;;;;;;0.00;0.00;;;5.00;90.60;;;;;;4162263;28;20063;-61
2022/01/10 07:33:32;;;;;;;0.00;0.00;;;4.70;90.80;;;;;;4163219;28;20046;-61
2022/01/10 07:35:55;;;;;;;0.00;0.00;;;4.50;91.30;;;;;;4162964;28;20128;-61
2022/01/10 07:38:17;;;;;;;0.00;0.00;;;4.40;91.50;;;;;;4176401;28;20407;-59
2022/01/10 07:40:39;;;;;;;0.00;0.00;;;4.40;91.70;;;;;;4162937;28;20065;-59
2022/01/10 07:43:02;;;;;;;0.00;0.00;;;4.40;91.80;;;;;;4176514;28;20041;-59
2022/01/10 07:45:50;;;;;;;0.00;0.00;;;4.50;91.70;;;;;;4162937;28;20065;-59
2022/01/10 07:48:13;;;;;;;0.00;0.00;;;4.60;91.50;;;;;;4145998;28;20041;-59
2022/01/10 07:50:35;;;;;;;0.00;0.00;;;4.70;91.40;;;;;;4146240;28;20092;-59
2022/01/10 07:52:58;;;;;;;0.00;0.00;;;4.80;91.50;;;;;;4160288;28;20582;-60
2022/01/10 07:55:20;;;;;;;0.00;0.00;;;4.80;91.50;;;;;;4146279;28;20164;-60
2022/01/10 07:57:43;;;;;;;0.00;0.00;;;4.80;91.40;;;;;;4146275;28;20112;-59
2022/01/10 08:00:06;;;;;;;0.00;0.00;;;4.80;91.40;;;;;;4175521;28;20045;-59
2022/01/10 08:02:39;;;;;;;0.00;0.00;;;4.80;91.50;;;;;;4161850;28;20045;-59
2022/01/10 08:05:01;;;;;;;0.00;0.00;;;4.90;91.40;;;;;;4148977;28;20037;-60
2022/01/10 08:07:24;;;;;;;0.00;0.00;;;5.00;91.20;;;;;;4176553;28;20076;-60
2022/01/10 08:09:46;;;;;;;0.00;0.00;;;5.10;91.30;;;;;;4148757;28;20133;-60
2022/01/10 08:12:09;;;;;;;0.00;0.00;;;5.10;91.20;;;;;;4175810;28;20534;-60
2022/01/10 08:14:33;;;;;;;0.00;0.00;;;5.00;91.10;;;;;;4161994;28;20060;-60
2022/01/10 08:16:58;;;;;;;0.00;0.00;;;5.00;91.20;;;;;;4176173;28;20463;-60
2022/01/10 08:19:21;;;;;;;0.00;0.00;;;4.90;91.20;;;;;;4175952;28;20057;-60
2022/01/10 08:21:44;;;;;;;0.00;0.00;;;4.60;91.30;;;;;;4162300;28;20079;-60
2022/01/10 08:24:06;;;;;;;0.00;0.00;;;4.50;91.60;;;;;;4162319;28;20041;-60
2022/01/10 08:26:29;;;;;;;0.00;0.00;;;4.60;91.70;;;;;;4145751;28;20100;-60
2022/01/10 08:28:51;;;;;;;0.00;0.00;;;4.80;91.50;;;;;;4145963;28;20439;-60
2022/01/10 08:31:14;;;;;;;0.00;0.00;;;5.00;91.10;;;;;;4154243;28;20120;-60
2022/01/10 08:33:37;;;;;;;0.00;0.00;;;5.00;90.80;;;;;;4162155;28;20049;-60
2022/01/10 08:35:59;;;;;;;0.00;0.00;;;5.00;90.60;;;;;;4161953;28;20053;-61
2022/01/10 08:38:22;;;;;;;0.00;0.00;;;5.00;90.40;;;;;;4161759;28;20049;-61
2022/01/10 08:40:44;;;;;;;0.00;0.00;;;5.10;90.70;;;;;;4161927;28;20148;-61
2022/01/10 08:43:10;;;;;;;0.00;0.00;;;5.00;90.50;;;;;;4175771;28;20473;-61
2022/01/10 08:45:33;;;;;;;0.00;0.00;;;5.10;90.80;;;;;;4162046;28;20093;-61
2022/01/10 08:47:55;;;;;;;0.00;0.00;;;5.30;90.60;;;;;;4162229;28;20057;-61
2022/01/10 08:50:18;;;;;;;0.00;0.00;;;5.60;90.50;;;;;;4175532;28;20080;-61
2022/01/10 08:52:41;;;;;;;0.00;0.00;;;6.30;90.20;;;;;;4175672;28;20064;-61
2022/01/10 08:55:04;;;;;;;0.00;0.00;;;7.00;89.60;;;;;;4176027;28;20132;-61
2022/01/10 08:57:27;;;;;;;0.00;0.00;;;7.80;88.20;;;;;;4175611;28;20414;-62
2022/01/10 08:59:49;;;;;;;0.00;0.00;;;7.90;85.60;;;;;;4162155;28;20113;-62
2022/01/10 09:02:12;;;;;;;0.00;0.00;;;7.60;84.60;;;;;;4145079;28;20092;-62
2022/01/10 09:04:35;;;;;;;0.00;0.00;;;7.40;84.40;;;;;;4159457;28;20046;-61
2022/01/10 09:06:59;;;;;;;0.00;0.00;;;7.30;84.30;;;;;;4145525;28;20084;-61
2022/01/10 09:09:22;;;;;;;0.00;0.00;;;7.30;84.40;;;;;;4132346;28;20050;-62
2022/01/10 09:11:45;;;;;;;0.00;0.00;;;7.40;84.90;;;;;;4145311;28;20128;-61
2022/01/10 09:14:09;;;;;;;0.00;0.00;;;7.90;84.70;;;;;;4159067;28;20400;-61
2022/01/10 09:16:31;;;;;;;0.00;0.00;;;8.50;83.90;;;;;;4144891;28;20077;-62
2022/01/10 09:18:54;;;;;;;0.00;0.00;;;8.80;82.60;;;;;;4145238;28;20133;-61
2022/01/10 09:21:16;;;;;;;0.00;0.00;;;9.20;81.60;;;;;;4145149;28;20042;-62
2022/01/10 09:23:38;;;;;;;0.00;0.00;;;9.10;80.40;;;;;;4145198;28;20042;-62
2022/01/10 09:26:01;;;;;;;0.00;0.00;;;9.10;79.60;;;;;;4145244;28;20129;-62
2022/01/10 09:28:23;;;;;;;0.00;0.00;;;9.30;79.30;;;;;;4144970;28;20558;-62
2022/01/10 09:30:46;;;;;;;0.00;0.00;;;9.60;78.80;;;;;;4144851;28;20082;-62
2022/01/10 09:33:09;;;;;;;0.00;0.00;;;9.80;78.00;;;;;;4145064;28;20042;-62
2022/01/10 09:35:32;;;;;;;0.00;0.00;;;10.30;77.30;;;;;;4145341;28;20050;-63
2022/01/10 09:37:54;;;;;;;0.00;0.00;;;10.50;75.70;;;;;;4145230;28;20149;-62
2022/01/10 09:40:18;;;;;;;0.00;0.00;;;10.40;74.10;;;;;;4158454;28;20049;-63
2022/01/10 09:42:41;;;;;;;0.00;0.00;;;10.70;74.70;;;;;;4145029;28;20056;-62
2022/01/10 09:45:06;;;;;;;0.00;0.00;;;11.20;72.10;;;;;;4159270;28;20049;-62
2022/01/10 09:47:29;;;;;;;0.00;0.00;;;11.20;71.20;;;;;;4131583;28;20054;-62
2022/01/10 09:49:51;;;;;;;0.00;0.00;;;11.10;70.90;;;;;;4145237;28;20509;-62
2022/01/10 09:52:15;;;;;;;0.00;0.00;;;10.60;71.80;;;;;;4158565;28;20045;-62
2022/01/10 09:54:38;;;;;;;0.00;0.00;;;9.80;72.30;;;;;;4164533;28;20041;-62
2022/01/10 09:57:00;;;;;;;0.00;0.00;;;9.40;72.90;;;;;;4164408;28;20724;-62
2022/01/10 09:59:23;;;;;;;0.00;0.00;;;9.00;74.50;;;;;;4178467;28;20048;-62
2022/01/10 10:01:51;;;;;;;0.00;0.00;;;9.00;74.90;;;;;;4159420;28;20075;-62
2022/01/10 10:04:13;;;;;;;0.00;0.00;;;8.80;75.20;;;;;;4180713;28;20041;-62
2022/01/10 10:06:36;;;;;;;0.00;0.00;;;8.30;75.40;;;;;;4180902;28;20059;-62
2022/01/10 10:09:00;;;;;;;0.00;0.00;;;7.90;76.50;;;;;;4180942;28;20041;-62
2022/01/10 10:11:23;;;;;;;0.00;0.00;;;7.80;77.50;;;;;;4180696;28;20664;-62
2022/01/10 10:13:56;;;;;;;0.00;0.00;;;7.60;78.10;;;;;;4180707;28;20073;-61
2022/01/10 10:16:20;;;;;;;0.00;0.00;;;7.70;78.30;;;;;;4163839;28;20492;-62
2022/01/10 10:18:43;;;;;;;0.00;0.00;;;7.50;79.20;;;;;;4164042;28;20522;-62
2022/01/10 10:21:12;;;;;;;0.00;0.00;;;7.50;79.70;;;;;;4163910;28;20056;-62
2022/01/10 10:23:50;;;;;;;0.00;0.00;;;7.60;79.40;;;;;;4163905;28;20045;-61
2022/01/10 10:26:21;;;;;;;0.00;0.00;;;7.60;79.10;;;;;;4180334;28;20469;-62
2022/01/10 10:28:45;;;;;;;0.00;0.00;;;7.30;79.30;;;;;;4180567;28;20601;-62
2022/01/10 10:31:08;;;;;;;0.00;0.00;;;7.20;80.20;;;;;;4166629;28;20053;-62
2022/01/10 10:33:30;;;;;;;0.00;0.00;;;7.20;80.00;;;;;;4180554;28;20414;-61
2022/01/10 10:36:00;;;;;;;0.00;0.00;;;7.00;80.40;;;;;;4180273;28;20128;-62
2022/01/10 10:38:27;;;;;;;0.00;0.00;;;7.00;81.20;;;;;;4179858;28;20088;-62
2022/01/10 10:40:50;;;;;;;0.00;0.00;;;6.90;81.20;;;;;;4180327;28;20037;-62
2022/01/10 10:43:12;;;;;;;0.00;0.00;;;6.90;81.80;;;;;;4180288;28;20060;-62
2022/01/10 10:45:36;;;;;;;0.00;0.00;;;6.80;82.00;;;;;;4180221;28;20580;-61
2022/01/10 10:48:04;;;;;;;0.00;0.00;;;6.80;82.80;;;;;;4165434;28;20421;-62
2022/01/10 10:50:29;;;;;;;0.00;0.00;;;6.90;82.20;;;;;;4179400;28;20051;-61
2022/01/10 10:52:51;;;;;;;0.00;0.00;;;6.70;83.10;;;;;;4180084;28;20130;-61
2022/01/10 10:55:15;;;;;;;0.00;0.00;;;6.60;83.70;;;;;;4180237;28;20049;-62
2022/01/10 10:57:38;;;;;;;0.00;0.00;;;6.60;83.90;;;;;;4179980;28;20045;-62
2022/01/10 11:00:03;;;;;;;0.00;0.00;;;6.90;83.60;;;;;;4179922;28;20052;-61
2022/01/10 11:02:26;;;;;;;0.00;0.00;;;6.80;84.40;;;;;;4179393;28;20053;-62
2022/01/10 11:04:49;;;;;;;0.00;0.00;;;7.00;84.20;;;;;;4179034;28;20534;-61
2022/01/10 11:07:12;;;;;;;0.00;0.00;;;7.30;83.30;;;;;;4180085;28;20059;-61
2022/01/10 11:09:56;;;;;;;0.00;0.00;;;7.50;82.80;;;;;;4179925;28;20039;-61
2022/01/10 11:12:23;;;;;;;0.00;0.00;;;7.90;81.90;;;;;;4165400;28;20060;-62
2022/01/10 11:14:46;;;;;;;0.00;0.00;;;8.70;80.70;;;;;;4180261;28;20490;-61
2022/01/10 11:17:20;;;;;;;0.00;0.00;;;9.60;79.40;;;;;;4179962;28;20072;-62
2022/01/10 11:19:42;;;;;;;0.00;0.00;;;10.00;76.70;;;;;;4179793;28;20041;-62
2022/01/10 11:22:08;;;;;;;0.00;0.00;;;10.20;75.60;;;;;;4179431;28;20049;-62
2022/01/10 11:24:49;;;;;;;0.00;0.00;;;9.50;75.30;;;;;;4179256;28;22316;-62
2022/01/10 11:27:35;;;;;;;0.00;0.00;;;9.00;76.20;;;;;;4179870;28;20053;-62
2022/01/10 11:30:02;;;;;;;0.00;0.00;;;8.60;77.20;;;;;;4179769;28;20048;-62
2022/01/10 11:33:01;;;;;;;0.00;0.00;;;8.50;78.00;;;;;;4178699;28;20056;-62
2022/01/10 11:35:51;;;;;;;0.00;0.00;;;8.30;78.00;;;;;;4179293;28;20049;-62
2022/01/10 11:38:20;;;;;;;;;;;7.50;80.20;;;;;;4179508;28;20088;-62
2022/01/10 11:40:43;;;;;;;0.00;0.00;;;7.30;81.40;;;;;;4179199;28;19928;-62
2022/01/10 11:43:06;;;;;;;0.00;0.00;;;7.40;81.30;;;;;;4179361;28;20119;-62
2022/01/10 11:45:42;;;;;;;0.00;0.00;;;7.40;81.30;;;;;;4179515;28;20045;-62
2022/01/10 11:48:11;;;;;;;0.00;0.00;;;7.20;82.40;;;;;;4179254;28;20454;-62
2022/01/10 11:50:55;;;;;;;0.00;0.00;;;6.70;83.50;;;;;;4167934;28;20119;-62
2022/01/10 11:53:18;;;;;;;0.00;0.00;;;6.70;84.20;;;;;;4179285;28;20136;-62
2022/01/10 11:55:56;;;;;;;0.00;0.00;;;6.40;84.90;;;;;;4179136;28;20502;-62
2022/01/10 11:58:20;;;;;;;0.00;0.00;;;6.60;85.50;;;;;;4178726;28;20507;-62
2022/01/10 12:00:43;;;;;;;0.00;0.00;;;6.90;84.40;;;;;;4164919;28;20426;-65
2022/01/10 12:03:06;;;;;;;0.00;0.00;;;7.10;83.70;;;;;;4179283;28;20091;-62
2022/01/10 12:05:31;;;;;;;0.00;0.00;;;7.20;83.30;;;;;;4174743;28;20474;-62
2022/01/10 12:07:53;;;;;;;0.00;0.00;;;7.20;83.10;;;;;;4185167;28;20075;-62
2022/01/10 12:10:22;;;;;;;0.00;0.00;;;7.40;83.00;;;;;;4159795;28;20473;-62
2022/01/10 12:12:49;;;;;;;0.00;0.00;;;7.30;82.80;;;;;;4188226;28;20068;-62
2022/01/10 12:15:12;;;;;;;0.00;0.00;;;7.40;82.80;;;;;;4161177;28;20071;-62
2022/01/10 12:17:36;;;;;;;0.00;0.00;;;7.10;83.40;;;;;;4159957;28;20107;-63
2022/01/10 12:20:02;;;;;;;0.00;0.00;;;7.20;83.70;;;;;;4159756;28;20045;-62
2022/01/10 12:22:24;;;;;;;0.00;0.00;;;7.00;84.20;;;;;;4128219;28;20061;-61
2022/01/10 12:24:47;;;;;;;0.00;0.00;;;7.10;83.70;;;;;;4165042;28;20045;-62
2022/01/10 12:27:12;;;;;;;0.00;0.00;;;7.20;83.30;;;;;;4192167;28;20052;-62
2022/01/10 12:29:40;;;;;;;0.00;0.00;;;7.20;83.40;;;;;;4166562;28;20052;-62
2022/01/10 12:32:04;;;;;;;0.00;0.00;;;7.40;83.10;;;;;;4191086;28;20072;-61
2022/01/10 12:34:27;;;;;;;0.00;0.00;;;7.50;82.80;;;;;;4192112;28;20079;-62
2022/01/10 12:36:50;;;;;;;0.00;0.00;;;7.40;82.70;;;;;;4178651;28;20068;-63
2022/01/10 12:39:25;;;;;;;0.00;0.00;;;7.20;83.00;;;;;;4176470;28;20040;-62
2022/01/10 12:41:48;;;;;;;0.00;0.00;;;7.30;83.50;;;;;;4161815;28;20076;-62
2022/01/10 12:44:10;;;;;;;0.00;0.00;;;7.20;83.30;;;;;;4148489;28;20132;-62
2022/01/10 12:46:33;;;;;;;0.00;0.00;;;7.30;83.50;;;;;;4158541;28;20136;-62
2022/01/10 12:48:56;;;;;;;0.00;0.00;;;7.40;82.90;;;;;;4145482;28;20052;-62
2022/01/10 12:51:21;;;;;;;0.00;0.00;;;7.60;82.60;;;;;;4158973;28;20053;-62
2022/01/10 12:53:57;;;;;;;0.00;0.00;;;7.80;82.10;;;;;;4159257;28;20081;-62
2022/01/10 12:56:22;;;;;;;0.00;0.00;;;7.80;82.00;;;;;;4161566;28;20388;-62
2022/01/10 12:58:45;;;;;;;0.00;0.00;;;7.90;81.40;;;;;;4162058;28;20041;-60
2022/01/10 13:01:10;;;;;;;0.00;0.00;;;7.90;81.10;;;;;;4161928;28;20053;-61
2022/01/10 13:03:33;;;;;;;0.00;0.00;;;7.70;81.40;;;;;;4161783;28;20095;-60